Time;durP1;ratioP1;P1;durP2;ratioP2;P2;SDS_P1;SDS_P2;PMS_P1;PMS_P2;Temp;Humidity;BMP_temperature;BMP_pressure;BME280_temperature;BME280_humidity;BME280_pressure;Samples;Min_cycle;Max_cycle;Signal;HPM_P1;HPM_P2
2023/05/03 00:02:02;;;;;;;1.30;0.20;;;;;;;12.09;100.00;100285.02;103841;1266;71401;-50
2023/05/03 00:04:30;;;;;;;1.80;0.30;;;;;;;12.09;100.00;100288.63;104385;1271;62740;-51
2023/05/03 00:06:57;;;;;;;1.00;0.30;;;;;;;12.09;100.00;100291.14;104178;1270;59363;-50
2023/05/03 00:09:24;;;;;;;1.40;0.30;;;;;;;12.08;100.00;100289.55;104274;1265;72426;-52
2023/05/03 00:11:52;;;;;;;0.50;0.30;;;;;;;12.09;100.00;100292.41;104100;1265;68630;-49
2023/05/03 00:14:19;;;;;;;1.00;0.20;;;;;;;12.08;100.00;100289.91;104181;1265;74558;-47
2023/05/03 00:16:45;;;;;;;1.10;0.30;;;;;;;12.08;100.00;100289.73;104137;1266;60227;-49
2023/05/03 00:19:12;;;;;;;0.60;0.20;;;;;;;12.08;100.00;100291.91;104086;1274;61416;-50
2023/05/03 00:21:56;;;;;;;0.60;0.30;;;;;;;12.08;100.00;100290.30;104186;1267;74301;-49
2023/05/03 00:24:23;;;;;;;3.00;0.40;;;;;;;12.08;100.00;100286.52;104138;1273;68981;-56
2023/05/03 00:26:50;;;;;;;0.90;0.30;;;;;;;12.08;100.00;100284.19;104134;1268;73755;-49
2023/05/03 00:29:19;;;;;;;2.00;0.30;;;;;;;12.07;100.00;100286.41;104022;1267;60117;-51
2023/05/03 00:31:46;;;;;;;4.20;0.40;;;;;;;12.07;100.00;100287.32;104398;1273;59712;-49
2023/05/03 00:34:13;;;;;;;1.00;0.20;;;;;;;12.07;100.00;100286.79;104221;1271;73942;-50
2023/05/03 00:36:40;;;;;;;2.00;0.30;;;;;;;12.06;100.00;100284.48;104179;1268;66985;-50
2023/05/03 00:39:06;;;;;;;0.50;0.20;;;;;;;12.05;100.00;100279.86;104116;1271;71389;-49
2023/05/03 00:41:33;;;;;;;1.70;0.30;;;;;;;12.04;100.00;100280.98;104048;1266;59892;-50
2023/05/03 00:44:00;;;;;;;1.30;0.20;;;;;;;12.03;100.00;100275.79;103920;1274;61270;-50
2023/05/03 00:46:27;;;;;;;2.60;0.30;;;;;;;12.03;100.00;100278.86;104040;1267;71355;-50
2023/05/03 00:48:54;;;;;;;1.20;0.30;;;;;;;12.02;100.00;100279.95;103813;1267;68564;-50
2023/05/03 00:51:21;;;;;;;3.60;0.40;;;;;;;12.02;100.00;100275.83;104611;1269;73591;-50
2023/05/03 00:53:48;;;;;;;3.00;0.30;;;;;;;12.02;100.00;100277.11;104141;1267;60342;-50
2023/05/03 00:56:18;;;;;;;5.50;0.60;;;;;;;12.00;100.00;100280.23;103899;1273;59650;-49
2023/05/03 00:58:45;;;;;;;4.80;0.50;;;;;;;11.99;100.00;100282.79;103892;1266;71033;-51
2023/05/03 01:01:12;;;;;;;4.30;0.60;;;;;;;11.98;100.00;100276.92;104058;1269;67092;-52
2023/05/03 01:03:40;;;;;;;4.50;0.40;;;;;;;11.97;100.00;100277.52;103974;1271;74132;-49
2023/05/03 01:06:31;;;;;;;1.30;0.40;;;;;;;11.96;100.00;100277.95;104232;1267;62413;-49
2023/05/03 01:09:02;;;;;;;2.70;0.30;;;;;;;11.94;100.00;100282.85;104344;1267;62903;-50
2023/05/03 01:11:52;;;;;;;2.40;0.40;;;;;;;11.93;100.00;100284.88;104330;1268;74583;-48
2023/05/03 01:14:35;;;;;;;0.90;0.30;;;;;;;11.92;100.00;100280.09;103874;1271;67773;-48
2023/05/03 01:17:06;;;;;;;1.00;0.30;;;;;;;11.91;100.00;100284.45;103746;1267;73264;-50
2023/05/03 01:19:37;;;;;;;1.30;0.40;;;;;;;11.88;100.00;100279.89;103434;1268;62183;-50
2023/05/03 01:22:38;;;;;;;1.00;0.40;;;;;;;11.86;100.00;100274.25;104937;1268;59755;-47
2023/05/03 01:25:11;;;;;;;3.10;0.40;;;;;;;11.83;100.00;100270.44;103586;1266;73863;-48
2023/05/03 01:27:39;;;;;;;4.20;0.30;;;;;;;11.80;100.00;100266.63;106862;1268;69877;-48
2023/05/03 01:30:07;;;;;;;2.30;0.30;;;;;;;11.76;100.00;100259.39;104051;1268;75451;-48
2023/05/03 01:33:09;;;;;;;1.40;0.30;;;;;;;11.74;100.00;100261.28;104318;1267;59853;-49
2023/05/03 01:35:51;;;;;;;1.40;0.50;;;;;;;11.72;100.00;100263.55;107881;1267;59976;-48
2023/05/03 01:38:18;;;;;;;0.80;0.20;;;;;;;11.69;100.00;100263.63;104071;1267;73177;-49
2023/05/03 01:40:50;;;;;;;4.10;0.50;;;;;;;11.66;100.00;100258.89;103885;1272;69266;-49
2023/05/03 01:43:19;;;;;;;1.90;0.30;;;;;;;11.64;100.00;100261.01;108020;1268;75556;-48
2023/05/03 01:45:45;;;;;;;5.90;0.30;;;;;;;11.62;100.00;100264.49;108101;1267;59509;-48
2023/05/03 01:48:14;;;;;;;2.40;0.30;;;;;;;11.60;100.00;100263.52;108100;1267;60916;-48
2023/05/03 01:50:40;;;;;;;1.20;0.30;;;;;;;11.59;100.00;100261.60;106752;1271;73008;-47
2023/05/03 01:53:07;;;;;;;0.80;0.30;;;;;;;11.57;100.00;100267.80;104041;1273;67735;-49
2023/05/03 01:55:34;;;;;;;2.00;0.40;;;;;;;11.56;100.00;100267.69;105369;1269;74744;-48
2023/05/03 01:58:01;;;;;;;1.80;0.30;;;;;;;11.54;100.00;100263.79;104454;1264;63046;-49
2023/05/03 02:00:28;;;;;;;1.60;0.30;;;;;;;11.52;100.00;100262.45;104270;1262;60093;-46
2023/05/03 02:02:55;;;;;;;3.90;0.30;;;;;;;11.49;100.00;100260.08;104442;1262;73908;-48
2023/05/03 02:05:22;;;;;;;0.90;0.30;;;;;;;11.46;100.00;100260.56;108447;1260;67642;-48
2023/05/03 02:07:49;;;;;;;0.80;0.30;;;;;;;11.44;100.00;100256.86;108617;1260;73249;-48
2023/05/03 02:10:16;;;;;;;0.70;0.40;;;;;;;11.41;100.00;100256.98;108613;1260;60732;-49
2023/05/03 02:12:43;;;;;;;0.70;0.20;;;;;;;11.37;100.00;100258.77;108415;1263;60851;-48
2023/05/03 02:15:10;;;;;;;1.20;0.50;;;;;;;11.34;100.00;100258.37;108525;1261;73513;-49
2023/05/03 02:17:37;;;;;;;0.40;0.30;;;;;;;11.30;100.00;100263.91;108587;1260;70191;-49
2023/05/03 02:20:08;;;;;;;0.70;0.30;;;;;;;11.28;100.00;100266.20;108681;1260;73256;-49
2023/05/03 02:22:35;;;;;;;4.60;0.40;;;;;;;11.25;100.00;100265.76;108510;1260;61961;-49
2023/05/03 02:25:02;;;;;;;5.10;0.30;;;;;;;11.22;100.00;100272.02;108574;1260;62522;-48
2023/05/03 02:27:29;;;;;;;0.30;0.20;;;;;;;11.20;100.00;100281.62;108637;1259;74734;-48
2023/05/03 02:29:56;;;;;;;1.00;0.30;;;;;;;11.17;100.00;100282.45;108496;1261;67812;-48
2023/05/03 02:32:23;;;;;;;2.50;0.20;;;;;;;11.15;100.00;100287.38;106190;1262;71589;-45
2023/05/03 02:34:50;;;;;;;0.60;0.20;;;;;;;11.13;100.00;100293.27;104309;1262;63654;-47
2023/05/03 02:37:18;;;;;;;2.10;0.40;;;;;;;11.10;100.00;100293.71;105603;1255;62596;-46
2023/05/03 02:39:45;;;;;;;4.60;0.40;;;;;;;11.07;100.00;100291.86;104792;1256;74883;-48
2023/05/03 02:42:12;;;;;;;0.60;0.30;;;;;;;11.05;100.00;100295.21;104731;1257;70489;-49
2023/05/03 02:44:39;;;;;;;0.70;0.30;;;;;;;11.02;100.00;100295.31;106804;1257;74956;-47
2023/05/03 02:47:07;;;;;;;3.00;0.40;;;;;;;11.00;100.00;100293.23;105188;1257;61724;-49
2023/05/03 02:49:34;;;;;;;0.90;0.30;;;;;;;10.98;100.00;100293.67;108745;1254;61428;-49
2023/05/03 02:52:01;;;;;;;0.50;0.30;;;;;;;10.95;100.00;100293.44;106677;1260;73352;-48
2023/05/03 02:54:28;;;;;;;8.10;0.80;;;;;;;10.93;100.00;100293.50;104828;1255;70548;-48
2023/05/03 02:56:56;;;;;;;2.60;0.40;;;;;;;10.92;100.00;100287.83;104644;1258;71638;-48
2023/05/03 02:59:22;;;;;;;2.20;0.40;;;;;;;10.90;100.00;100289.31;104594;1255;60394;-46
2023/05/03 03:01:49;;;;;;;0.90;0.30;;;;;;;10.89;100.00;100293.88;107135;1256;62120;-48
2023/05/03 03:04:16;;;;;;;2.20;0.30;;;;;;;10.87;100.00;100292.17;104714;1257;73908;-48
2023/05/03 03:06:43;;;;;;;0.80;0.40;;;;;;;10.86;100.00;100290.60;104754;1256;69971;-46
2023/05/03 03:09:11;;;;;;;1.60;0.40;;;;;;;10.85;100.00;100286.66;104902;1255;74827;-53
2023/05/03 03:11:38;;;;;;;0.60;0.30;;;;;;;10.85;100.00;100286.69;105333;1256;60648;-49
2023/05/03 03:14:06;;;;;;;5.30;0.40;;;;;;;10.85;100.00;100288.11;106218;1255;59802;-48
2023/05/03 03:16:34;;;;;;;2.70;0.40;;;;;;;10.86;100.00;100290.77;105375;1259;73762;-47
2023/05/03 03:19:01;;;;;;;3.70;0.30;;;;;;;10.85;100.00;100293.83;105648;1259;69346;-46
2023/05/03 03:21:28;;;;;;;5.40;0.50;;;;;;;10.86;100.00;100298.30;105327;1261;73506;-48
2023/05/03 03:23:55;;;;;;;1.60;0.40;;;;;;;10.87;100.00;100298.81;105171;1261;59722;-47
2023/05/03 03:26:22;;;;;;;3.50;0.30;;;;;;;10.88;100.00;100293.23;105168;1256;62503;-49
2023/05/03 03:28:50;;;;;;;0.70;0.50;;;;;;;10.88;100.00;100294.08;105311;1261;74240;-48
2023/05/03 03:31:17;;;;;;;4.20;0.40;;;;;;;10.89;100.00;100297.80;105338;1255;69178;-48
2023/05/03 03:33:45;;;;;;;4.30;0.50;;;;;;;10.89;100.00;100295.86;105219;1255;71912;-47
2023/05/03 03:36:13;;;;;;;7.10;0.40;;;;;;;10.90;100.00;100291.69;105681;1255;60870;-47
2023/05/03 03:38:40;;;;;;;2.10;0.40;;;;;;;10.90;100.00;100286.81;108024;1258;62345;-47
2023/05/03 03:41:07;;;;;;;6.20;0.50;;;;;;;10.92;100.00;100286.40;105199;1261;76175;-48
2023/05/03 03:43:34;;;;;;;8.60;1.00;;;;;;;10.94;100.00;100283.44;105569;1255;70208;-47
2023/05/03 03:46:02;;;;;;;1.90;0.50;;;;;;;10.96;100.00;100280.14;105198;1260;73668;-49
2023/05/03 03:48:29;;;;;;;4.30;0.40;;;;;;;10.98;100.00;100274.48;105339;1255;60624;-46
2023/05/03 03:50:56;;;;;;;3.80;0.50;;;;;;;10.99;100.00;100270.98;105275;1260;62304;-48
2023/05/03 03:53:24;;;;;;;4.40;0.40;;;;;;;11.01;100.00;100264.10;105670;1261;75896;-48
2023/05/03 03:55:52;;;;;;;3.90;0.40;;;;;;;11.03;100.00;100266.91;105797;1255;68055;-48
2023/05/03 03:58:19;;;;;;;2.20;0.40;;;;;;;11.05;100.00;100267.91;105335;1255;74605;-48
2023/05/03 04:00:46;;;;;;;3.90;0.40;;;;;;;11.08;100.00;100269.90;105180;1256;60464;-48
2023/05/03 04:03:14;;;;;;;2.80;0.40;;;;;;;11.13;100.00;100272.75;105027;1257;62339;-49
2023/05/03 04:05:42;;;;;;;4.00;0.40;;;;;;;11.18;100.00;100266.59;105441;1261;75318;-49
2023/05/03 04:08:09;;;;;;;2.80;0.40;;;;;;;11.24;100.00;100265.44;105773;1255;68699;-47
2023/05/03 04:10:36;;;;;;;2.10;0.40;;;;;;;11.33;100.00;100269.92;105305;1261;74938;-46
2023/05/03 04:13:03;;;;;;;3.40;0.40;;;;;;;11.45;100.00;100275.34;105193;1258;60596;-48
2023/05/03 04:15:30;;;;;;;6.80;0.50;;;;;;;11.59;100.00;100275.58;105063;1255;61255;-48
2023/05/03 04:17:58;;;;;;;0.60;0.30;;;;;;;11.74;100.00;100272.63;105053;1256;74864;-48
2023/05/03 04:20:25;;;;;;;3.70;0.40;;;;;;;11.90;100.00;100274.79;105048;1257;68842;-47
2023/05/03 04:22:52;;;;;;;1.60;0.50;;;;;;;12.08;100.00;100270.89;104889;1261;75040;-48
2023/05/03 04:25:21;;;;;;;4.70;0.30;;;;;;;12.27;100.00;100271.08;105621;1258;60497;-48
2023/05/03 04:27:54;;;;;;;4.00;0.30;;;;;;;12.45;100.00;100266.79;104877;1256;60751;-47
2023/05/03 04:30:22;;;;;;;0.70;0.30;;;;;;;12.58;100.00;100262.77;105545;1257;75347;-46
2023/05/03 04:32:53;;;;;;;3.10;0.40;;;;;;;12.67;100.00;100260.67;105345;1254;68609;-47
2023/05/03 04:35:20;;;;;;;3.90;0.40;;;;;;;12.78;100.00;100260.86;108762;1256;72760;-49
2023/05/03 04:37:47;;;;;;;6.00;0.40;;;;;;;12.85;100.00;100264.48;108859;1258;60373;-50
2023/05/03 04:40:18;;;;;;;3.80;0.40;;;;;;;12.88;100.00;100263.04;106088;1256;60420;-50
2023/05/03 04:42:49;;;;;;;0.90;0.30;;;;;;;12.93;100.00;100263.58;105102;1259;76156;-49
2023/05/03 04:45:17;;;;;;;1.80;0.30;;;;;;;12.97;100.00;100262.30;104897;1257;68551;-46
2023/05/03 04:47:44;;;;;;;4.70;0.40;;;;;;;12.99;100.00;100262.90;104808;1256;72642;-48
2023/05/03 04:50:11;;;;;;;6.10;0.60;;;;;;;13.02;100.00;100258.56;104788;1259;60881;-48
2023/05/03 04:52:39;;;;;;;4.20;0.50;;;;;;;13.07;100.00;100259.07;108143;1256;59915;-50
2023/05/03 04:55:08;;;;;;;5.20;0.40;;;;;;;13.12;100.00;100258.27;105279;1256;73712;-50
2023/05/03 04:57:35;;;;;;;3.60;0.40;;;;;;;13.19;100.00;100260.09;105719;1256;69368;-49
2023/05/03 05:00:09;;;;;;;5.90;0.50;;;;;;;13.26;100.00;100257.73;105627;1261;75285;-48
2023/05/03 05:02:36;;;;;;;6.50;0.50;;;;;;;13.35;100.00;100261.45;105629;1256;60408;-48
2023/05/03 05:05:05;;;;;;;4.50;0.70;;;;;;;13.42;100.00;100262.16;107329;1255;61485;-50
2023/05/03 05:07:33;;;;;;;5.00;1.00;;;;;;;13.49;100.00;100258.54;105301;1255;75545;-49
2023/05/03 05:10:00;;;;;;;5.80;0.70;;;;;;;13.55;100.00;100258.92;108904;1255;68503;-51
2023/05/03 05:12:29;;;;;;;10.00;0.70;;;;;;;13.61;100.00;100259.15;105480;1256;74059;-50
2023/05/03 05:14:55;;;;;;;11.70;0.80;;;;;;;13.69;100.00;100257.84;105218;1253;60660;-49
2023/05/03 05:17:25;;;;;;;7.60;1.30;;;;;;;13.77;100.00;100254.86;105316;1254;60956;-51
2023/05/03 05:19:53;;;;;;;10.80;1.30;;;;;;;13.86;100.00;100248.99;107652;1260;71848;-50
2023/05/03 05:22:19;;;;;;;6.90;1.10;;;;;;;13.94;100.00;100251.94;105683;1253;68031;-50
2023/05/03 05:24:51;;;;;;;15.80;1.00;;;;;;;14.04;100.00;100248.54;105283;1256;70500;-51
2023/05/03 05:27:18;;;;;;;12.60;1.50;;;;;;;14.15;100.00;100249.91;105427;1256;60446;-49
2023/05/03 05:29:46;;;;;;;6.20;1.00;;;;;;;14.26;100.00;100247.48;108644;1255;61223;-49
2023/05/03 05:32:13;;;;;;;8.50;0.80;;;;;;;14.36;100.00;100242.77;107000;1261;75847;-50
2023/05/03 05:34:41;;;;;;;11.10;0.70;;;;;;;14.48;100.00;100240.55;106365;1256;68130;-52
2023/05/03 05:37:13;;;;;;;4.00;0.50;;;;;;;14.57;100.00;100238.00;104673;1260;72337;-49
2023/05/03 05:39:40;;;;;;;4.00;0.60;;;;;;;14.68;100.00;100236.84;104840;1255;60525;-50
2023/05/03 05:42:07;;;;;;;2.30;0.50;;;;;;;14.79;100.00;100237.27;105014;1256;61704;-49
2023/05/03 05:44:34;;;;;;;3.70;0.50;;;;;;;14.90;100.00;100230.67;104704;1261;74702;-49
2023/05/03 05:47:01;;;;;;;6.10;0.40;;;;;;;15.02;100.00;100224.34;105302;1255;68473;-49
2023/05/03 05:49:28;;;;;;;4.80;0.30;;;;;;;15.14;100.00;100223.09;104718;1261;72398;-49
2023/05/03 05:51:56;;;;;;;1.60;0.30;;;;;;;15.27;100.00;100219.99;104942;1256;60601;-48
2023/05/03 05:54:23;;;;;;;2.20;0.30;;;;;;;15.37;100.00;100218.27;104924;1261;60435;-51
2023/05/03 05:56:50;;;;;;;6.20;0.40;;;;;;;15.47;100.00;100216.56;104849;1261;73718;-51
2023/05/03 05:59:17;;;;;;;3.00;0.30;;;;;;;15.57;100.00;100211.66;105237;1261;66969;-51
2023/05/03 06:01:45;;;;;;;3.40;0.20;;;;;;;15.66;100.00;100204.94;106206;1261;72612;-51
2023/05/03 06:04:15;;;;;;;1.60;0.20;;;;;;;15.76;100.00;100200.34;106750;1261;62149;-50
2023/05/03 06:06:42;;;;;;;2.80;0.20;;;;;;;15.86;100.00;100195.15;105377;1255;61441;-48
2023/05/03 06:09:09;;;;;;;2.10;0.20;;;;;;;15.95;100.00;100190.60;105239;1260;73062;-49
2023/05/03 06:11:52;;;;;;;14.80;0.30;;;;;;;16.07;100.00;100186.98;105150;1261;66762;-50
2023/05/03 06:14:19;;;;;;;4.40;0.20;;;;;;;16.17;100.00;100178.54;105178;1254;74622;-49
2023/05/03 06:16:46;;;;;;;0.50;0.30;;;;;;;16.25;100.00;100177.64;104951;1258;61503;-49
2023/05/03 06:19:13;;;;;;;0.50;0.20;;;;;;;16.35;100.00;100175.77;105181;1261;60538;-52
2023/05/03 06:21:40;;;;;;;0.40;0.20;;;;;;;16.44;100.00;100176.05;105121;1255;74259;-52
2023/05/03 06:24:07;;;;;;;1.80;0.20;;;;;;;16.52;100.00;100175.52;105179;1261;67787;-51
2023/05/03 06:26:33;;;;;;;0.80;0.20;;;;;;;16.60;100.00;100171.85;105105;1255;72722;-52
2023/05/03 06:29:02;;;;;;;1.00;0.20;;;;;;;16.71;100.00;100170.33;105123;1259;62767;-50
2023/05/03 06:31:29;;;;;;;1.50;0.10;;;;;;;16.79;100.00;100163.56;105679;1256;62604;-50
2023/05/03 06:33:56;;;;;;;4.60;0.20;;;;;;;16.88;100.00;100164.23;104961;1259;74320;-51
2023/05/03 06:36:24;;;;;;;0.20;0.10;;;;;;;16.97;100.00;100158.02;105060;1256;68449;-53
2023/05/03 06:38:51;;;;;;;6.20;0.20;;;;;;;17.05;100.00;100153.10;105027;1259;74850;-51
2023/05/03 06:41:18;;;;;;;2.70;0.10;;;;;;;17.14;100.00;100151.58;105127;1257;60838;-52
2023/05/03 06:43:44;;;;;;;2.70;0.20;;;;;;;17.21;100.00;100156.11;105145;1256;60871;-52
2023/05/03 06:46:11;;;;;;;1.90;0.20;;;;;;;17.27;100.00;100153.77;105193;1261;74687;-51
2023/05/03 06:48:38;;;;;;;1.30;0.20;;;;;;;17.33;100.00;100152.00;105171;1256;66417;-50
2023/05/03 06:51:06;;;;;;;1.00;0.20;;;;;;;17.41;100.00;100150.23;105036;1265;72526;-49
2023/05/03 06:53:32;;;;;;;3.30;0.80;;;;;;;17.50;100.00;100146.16;105136;1261;61543;-52
2023/05/03 06:55:59;;;;;;;1.90;0.20;;;;;;;17.59;100.00;100144.42;105085;1261;60971;-49
2023/05/03 06:58:26;;;;;;;5.10;0.30;;;;;;;17.69;100.00;100141.91;105220;1258;73586;-52
2023/05/03 07:00:52;;;;;;;3.40;0.20;;;;;;;17.79;100.00;100143.16;105102;1261;70014;-50
2023/05/03 07:03:19;;;;;;;3.60;0.20;;;;;;;17.90;100.00;100139.27;105123;1260;74300;-51
2023/05/03 07:05:47;;;;;;;3.50;0.30;;;;;;;18.01;100.00;100141.77;104869;1257;61772;-52
2023/05/03 07:08:13;;;;;;;2.00;0.20;;;;;;;18.10;100.00;100138.58;105122;1260;60686;-51
2023/05/03 07:10:40;;;;;;;8.20;0.60;;;;;;;18.18;100.00;100139.98;104595;1256;75312;-50
2023/05/03 07:13:07;;;;;;;1.40;0.20;;;;;;;18.23;100.00;100137.25;104543;1259;67360;-50
2023/05/03 07:15:34;;;;;;;1.30;0.20;;;;;;;18.25;100.00;100131.48;104574;1261;74607;-52
2023/05/03 07:18:01;;;;;;;1.50;0.20;;;;;;;18.26;100.00;100134.88;104441;1260;61886;-51
2023/05/03 07:20:28;;;;;;;2.50;0.20;;;;;;;18.27;100.00;100127.51;104946;1256;62780;-50
2023/05/03 07:22:55;;;;;;;1.90;0.20;;;;;;;18.29;100.00;100129.73;105179;1261;73644;-50
2023/05/03 07:25:21;;;;;;;1.60;0.30;;;;;;;18.34;100.00;100121.51;104792;1256;69221;-51
2023/05/03 07:27:48;;;;;;;2.10;0.20;;;;;;;18.41;100.00;100118.45;104784;1261;72103;-52
2023/05/03 07:30:15;;;;;;;6.40;0.20;;;;;;;18.48;100.00;100113.18;104939;1260;60543;-50
2023/05/03 07:32:42;;;;;;;2.90;0.20;;;;;;;18.54;100.00;100113.48;104988;1255;60481;-51
2023/05/03 07:35:09;;;;;;;3.20;0.20;;;;;;;18.58;100.00;100114.86;105298;1254;74043;-54
2023/05/03 07:37:37;;;;;;;1.20;0.20;;;;;;;18.60;100.00;100113.42;105245;1259;69320;-51
2023/05/03 07:40:08;;;;;;;3.90;0.40;;;;;;;18.61;100.00;100113.67;105262;1254;73774;-50
2023/05/03 07:42:35;;;;;;;0.60;0.20;;;;;;;18.63;100.00;100110.28;105215;1260;60632;-52
2023/05/03 07:45:02;;;;;;;7.10;0.30;;;;;;;18.65;100.00;100114.12;104643;1260;60527;-51
2023/05/03 07:47:29;;;;;;;1.00;0.30;;;;;;;18.66;100.00;100110.78;105739;1259;76392;-50
2023/05/03 07:49:56;;;;;;;0.80;0.20;;;;;;;18.67;100.00;100109.61;104938;1267;66901;-50
2023/05/03 07:52:22;;;;;;;4.90;0.40;;;;;;;18.71;100.00;100111.81;104784;1260;74512;-50
2023/05/03 07:54:50;;;;;;;2.50;0.40;;;;;;;18.79;100.00;100106.88;104747;1254;60484;-50
2023/05/03 07:57:17;;;;;;;10.00;0.30;;;;;;;18.88;100.00;100095.25;108953;1254;59333;-52
2023/05/03 07:59:43;;;;;;;2.30;0.20;;;;;;;18.99;100.00;100102.98;108825;1254;75763;-51
2023/05/03 08:02:10;;;;;;;15.30;0.50;;;;;;;19.07;100.00;100097.91;108864;1259;70014;-52
2023/05/03 08:04:37;;;;;;;0.90;0.30;;;;;;;19.17;100.00;100104.06;108858;1258;71337;-51
2023/05/03 08:07:04;;;;;;;9.80;0.30;;;;;;;19.25;100.00;100104.49;107417;1257;60561;-50
2023/05/03 08:09:31;;;;;;;5.30;0.40;;;;;;;19.32;100.00;100104.89;105310;1254;64766;-51
2023/05/03 08:11:58;;;;;;;3.80;0.40;;;;;;;19.38;100.00;100102.27;105242;1256;74776;-52
2023/05/03 08:14:24;;;;;;;5.00;0.70;;;;;;;19.43;100.00;100101.48;105163;1259;71888;-52
2023/05/03 08:16:51;;;;;;;5.80;0.40;;;;;;;19.49;100.00;100104.31;105245;1255;73212;-52
2023/05/03 08:19:18;;;;;;;4.20;0.30;;;;;;;19.54;100.00;100098.63;108783;1254;60826;-53
2023/05/03 08:21:45;;;;;;;4.00;0.30;;;;;;;19.60;100.00;100103.96;106848;1260;61661;-51
2023/05/03 08:24:12;;;;;;;1.00;0.40;;;;;;;19.67;100.00;100097.90;104921;1261;73908;-52
2023/05/03 08:26:45;;;;;;;2.70;0.30;;;;;;;19.73;100.00;100098.14;108913;1254;69074;-53
2023/05/03 08:29:12;;;;;;;0.80;0.20;;;;;;;19.78;100.00;100101.20;106857;1260;72942;-51
2023/05/03 08:31:39;;;;;;;0.20;0.20;;;;;;;19.82;100.00;100098.89;105146;1260;60499;-52
2023/05/03 08:34:09;;;;;;;8.10;0.40;;;;;;;19.87;100.00;100096.65;106002;1257;62327;-53
2023/05/03 08:36:37;;;;;;;7.00;0.40;;;;;;;19.92;100.00;100100.79;105050;1259;75597;-51
2023/05/03 08:39:06;;;;;;;3.40;0.30;;;;;;;19.98;100.00;100096.48;105140;1258;66876;-51
2023/05/03 08:41:33;;;;;;;2.30;0.20;;;;;;;20.05;100.00;100089.94;105238;1260;71473;-52
2023/05/03 08:44:00;;;;;;;0.50;0.20;;;;;;;20.10;100.00;100092.95;105012;1260;60982;-52
2023/05/03 08:46:27;;;;;;;3.40;0.60;;;;;;;20.14;100.00;100093.52;105614;1260;60856;-52
2023/05/03 08:48:55;;;;;;;0.60;0.30;;;;;;;20.16;100.00;100097.02;105313;1259;75179;-50
2023/05/03 08:51:22;;;;;;;2.60;0.30;;;;;;;20.16;100.00;100095.70;105293;1260;65668;-52
2023/05/03 08:53:49;;;;;;;2.50;0.20;;;;;;;20.20;100.00;100088.12;105406;1262;78069;-51
2023/05/03 08:56:24;;;;;;;0.50;0.30;;;;;;;20.25;100.00;100096.58;105322;1262;60959;-52
2023/05/03 08:58:52;;;;;;;3.60;0.60;;;;;;;20.29;100.00;100088.58;106095;1260;61798;-52
2023/05/03 09:01:19;;;;;;;3.80;0.30;;;;;;;20.32;100.00;100084.87;105263;1257;75772;-52
2023/05/03 09:03:50;;;;;;;1.50;0.20;;;;;;;20.37;100.00;100086.13;105211;1260;70213;-52
2023/05/03 09:06:18;;;;;;;1.30;0.20;;;;;;;20.43;100.00;100082.02;106765;1256;73270;-50
2023/05/03 09:08:45;;;;;;;1.60;0.30;;;;;;;20.47;100.00;100082.83;106052;1260;61630;-52
2023/05/03 09:11:26;;;;;;;4.10;0.30;;;;;;;20.51;100.00;100084.77;105062;1254;60435;-53
2023/05/03 09:13:53;;;;;;;2.50;0.30;;;;;;;20.55;100.00;100089.56;105257;1260;74653;-51
2023/05/03 09:16:26;;;;;;;0.90;0.30;;;;;;;20.58;100.00;100094.20;105298;1261;69097;-52
2023/05/03 09:19:00;;;;;;;1.60;0.40;;;;;;;20.62;100.00;100090.04;106185;1261;75441;-51
2023/05/03 09:21:27;;;;;;;5.00;0.40;;;;;;;20.66;100.00;100094.52;105837;1261;60187;-51
2023/05/03 09:23:54;;;;;;;1.60;0.30;;;;;;;20.68;100.00;100091.89;105078;1259;62800;-52
2023/05/03 09:26:27;;;;;;;2.50;0.30;;;;;;;20.67;100.00;100097.27;104890;1258;74865;-51
2023/05/03 09:28:55;;;;;;;3.00;0.30;;;;;;;20.63;100.00;100099.63;106609;1258;67150;-52
2023/05/03 09:31:22;;;;;;;3.00;0.30;;;;;;;20.61;100.00;100101.08;105568;1260;75245;-50
2023/05/03 09:33:49;;;;;;;1.80;0.30;;;;;;;20.61;100.00;100096.87;104487;1257;62104;-52
2023/05/03 09:36:16;;;;;;;4.80;0.40;;;;;;;20.64;100.00;100091.50;104942;1261;61121;-52
2023/05/03 09:38:43;;;;;;;3.90;0.30;;;;;;;20.68;100.00;100096.85;105227;1263;72451;-52
2023/05/03 09:41:10;;;;;;;3.20;0.30;;;;;;;20.72;100.00;100102.30;105181;1260;68301;-51
2023/05/03 09:43:48;;;;;;;5.70;0.20;;;;;;;20.76;100.00;100095.95;105150;1257;74675;-49
2023/05/03 09:46:15;;;;;;;0.40;0.30;;;;;;;20.81;100.00;100105.79;105174;1262;60592;-52
2023/05/03 09:48:42;;;;;;;0.30;0.20;;;;;;;20.84;100.00;100096.56;105306;1257;62630;-53
2023/05/03 09:51:10;;;;;;;0.40;0.20;;;;;;;20.88;100.00;100092.22;105346;1260;75179;-53
2023/05/03 09:53:38;;;;;;;1.20;0.30;;;;;;;20.90;100.00;100096.75;105850;1260;70692;-52
2023/05/03 09:56:10;;;;;;;2.30;0.30;;;;;;;20.93;100.00;100101.63;107946;1256;74744;-52
2023/05/03 09:58:38;;;;;;;0.50;0.20;;;;;;;20.96;100.00;100096.83;105369;1263;60542;-53
2023/05/03 10:01:06;;;;;;;2.30;0.40;;;;;;;21.00;100.00;100086.22;105549;1260;61559;-53
2023/05/03 10:03:43;;;;;;;0.90;0.30;;;;;;;21.07;100.00;100085.81;105490;1260;73501;-52
2023/05/03 10:06:23;;;;;;;8.80;0.40;;;;;;;21.13;100.00;100082.69;105952;1260;69365;-52
2023/05/03 10:09:15;;;;;;;5.60;0.40;;;;;;;21.22;100.00;100086.41;105336;1260;73885;-52
2023/05/03 10:11:47;;;;;;;0.70;0.40;;;;;;;21.29;100.00;100091.09;105202;1258;62693;-52
2023/05/03 10:14:14;;;;;;;4.00;0.60;;;;;;;21.33;100.00;100087.96;105109;1258;60388;-51
2023/05/03 10:16:43;;;;;;;14.50;0.90;;;;;;;21.37;100.00;100083.73;105412;1257;72857;-50
2023/05/03 10:19:13;;;;;;;2.60;0.40;;;;;;;21.43;100.00;100075.55;105163;1260;68843;-50
2023/05/03 10:21:57;;;;;;;1.20;0.30;;;;;;;21.48;100.00;100090.62;105200;1261;74093;-50
2023/05/03 10:24:24;;;;;;;3.00;0.30;;;;;;;21.50;100.00;100085.53;105737;1257;61131;-51
2023/05/03 10:26:51;;;;;;;11.10;0.90;;;;;;;21.54;100.00;100082.09;105109;1254;62663;-50
2023/05/03 10:29:33;;;;;;;1.30;0.30;;;;;;;21.58;100.00;100085.23;105810;1261;74749;-50
2023/05/03 10:32:04;;;;;;;4.40;0.50;;;;;;;21.63;100.00;100083.95;105259;1256;67203;-52
2023/05/03 10:34:34;;;;;;;8.90;0.30;;;;;;;21.69;100.00;100076.16;104708;1257;71317;-52
2023/05/03 10:37:02;;;;;;;5.70;0.50;;;;;;;21.74;100.00;100080.29;108648;1257;59580;-52
2023/05/03 10:39:29;;;;;;;1.10;0.30;;;;;;;21.79;100.00;100083.48;106678;1256;60480;-51
2023/05/03 10:42:03;;;;;;;2.70;0.50;;;;;;;21.84;100.00;100079.57;105947;1260;74160;-52
2023/05/03 10:44:37;;;;;;;10.60;0.40;;;;;;;21.88;100.00;100087.54;105202;1260;66440;-52
2023/05/03 10:47:22;;;;;;;0.80;0.20;;;;;;;21.94;100.00;100083.09;105195;1260;74903;-53
2023/05/03 10:50:10;;;;;;;21.70;1.70;;;;;;;21.99;100.00;100085.39;106122;1257;60517;-51
2023/05/03 10:52:37;;;;;;;5.10;0.40;;;;;;;22.02;100.00;100077.79;105211;1261;62187;-51
2023/05/03 10:55:09;;;;;;;12.90;1.80;;;;;;;22.06;100.00;100077.94;105154;1260;74244;-51
2023/05/03 10:57:36;;;;;;;2.50;0.30;;;;;;;22.10;100.00;100081.80;105328;1257;67776;-52
2023/05/03 11:00:22;;;;;;;0.70;0.30;;;;;;;22.13;100.00;100080.62;108775;1256;71538;-52
2023/05/03 11:03:14;;;;;;;1.50;0.20;;;;;;;22.13;100.00;100081.30;106053;1257;60494;-53
2023/05/03 11:05:41;;;;;;;1.80;0.40;;;;;;;22.14;100.00;100077.04;105298;1258;60585;-52
2023/05/03 11:08:09;;;;;;;2.50;0.40;;;;;;;22.13;100.00;100083.85;105270;1258;72280;-52
2023/05/03 11:10:35;;;;;;;2.50;0.50;;;;;;;22.12;100.00;100081.39;107468;1257;65771;-51
2023/05/03 11:13:02;;;;;;;2.00;0.30;;;;;;;22.13;100.00;100076.74;105299;1259;71381;-51
2023/05/03 11:15:29;;;;;;;0.70;0.20;;;;;;;22.15;100.00;100077.45;105136;1261;62687;-53
2023/05/03 11:17:56;;;;;;;27.10;1.60;;;;;;;22.19;100.00;100073.63;104641;1259;60655;-51